Time;durP1;ratioP1;P1;durP2;ratioP2;P2;SDS_P1;SDS_P2;PMS_P1;PMS_P2;Temp;Humidity;BMP_temperature;BMP_pressure;BME280_temperature;BME280_humidity;BME280_pressure;Samples;Min_cycle;Max_cycle;Signal;HPM_P1;HPM_P2
2023/04/30 00:00:24;;;;;;;15.30;8.90;;;;;;;;;;5055516;28;20108;-69
2023/04/30 00:02:49;;;;;;;16.50;8.87;;;;;;;;;;5054996;28;20025;-68
2023/04/30 00:05:14;;;;;;;15.87;9.40;;;;;;;;;;5050492;28;20028;-69
2023/04/30 00:07:41;;;;;;;16.40;9.00;;;;;;;;;;5064010;28;20024;-68
2023/04/30 00:10:07;;;;;;;14.80;8.88;;;;;;;;;;5051706;28;20078;-69
2023/04/30 00:12:32;;;;;;;15.50;8.68;;;;;;;;;;5045927;28;20025;-68
2023/04/30 00:14:57;;;;;;;15.52;8.95;;;;;;;;;;5057818;28;20021;-68
2023/04/30 00:17:22;;;;;;;15.48;8.20;;;;;;;;;;5056297;28;20033;-68
2023/04/30 00:19:48;;;;;;;13.77;9.40;;;;;;;;;;5060643;28;20017;-68
2023/04/30 00:22:13;;;;;;;14.17;8.23;;;;;;;;;;5066434;28;20036;-69
2023/04/30 00:24:38;;;;;;;13.50;8.47;;;;;;;;;;5069860;28;20506;-69
2023/04/30 00:27:03;;;;;;;14.27;8.80;;;;;;;;;;5061806;28;20021;-69
2023/04/30 00:29:28;;;;;;;13.83;9.17;;;;;;;;;;5051335;28;20028;-69
2023/04/30 00:31:53;;;;;;;14.83;8.90;;;;;;;;;;5048168;28;20107;-68
2023/04/30 00:34:19;;;;;;;15.25;8.68;;;;;;;;;;5050589;28;20369;-69
2023/04/30 00:36:44;;;;;;;13.60;8.77;;;;;;;;;;5050896;28;20017;-69
2023/04/30 00:39:09;;;;;;;16.52;8.63;;;;;;;;;;5051248;28;20021;-68
2023/04/30 00:41:34;;;;;;;12.73;7.97;;;;;;;;;;5050939;28;20380;-68
2023/04/30 00:44:01;;;;;;;12.97;7.07;;;;;;;;;;5050392;28;20025;-68
2023/04/30 00:46:26;;;;;;;13.38;7.40;;;;;;;;;;5046975;28;20568;-68
2023/04/30 00:48:51;;;;;;;12.23;7.03;;;;;;;;;;5042229;28;20060;-68
2023/04/30 00:51:17;;;;;;;11.23;6.80;;;;;;;;;;5050546;28;20381;-69
2023/04/30 00:53:42;;;;;;;12.37;7.10;;;;;;;;;;5050003;28;20444;-68
2023/04/30 00:56:08;;;;;;;11.63;6.68;;;;;;;;;;5050529;28;20012;-68
2023/04/30 00:58:34;;;;;;;10.55;6.30;;;;;;;;;;5046508;28;20078;-68
2023/04/30 01:00:59;;;;;;;11.10;6.22;;;;;;;;;;5048655;28;20025;-68
2023/04/30 01:03:25;;;;;;;13.02;6.20;;;;;;;;;;5049955;28;20013;-68
2023/04/30 01:05:50;;;;;;;11.33;6.57;;;;;;;;;;5057892;28;20361;-68
2023/04/30 01:08:15;;;;;;;10.03;5.93;;;;;;;;;;5041021;28;20454;-68
2023/04/30 01:10:44;;;;;;;10.40;6.70;;;;;;;;;;5050357;28;20104;-69
2023/04/30 01:13:16;;;;;;;10.25;6.25;;;;;;;;;;5044969;28;20090;-68
2023/04/30 01:15:53;;;;;;;12.75;6.47;;;;;;;;;;5045136;28;20033;-68
2023/04/30 01:18:28;;;;;;;12.02;6.50;;;;;;;;;;5040733;28;20122;-68
2023/04/30 01:20:56;;;;;;;11.35;6.18;;;;;;;;;;5050241;28;20017;-69
2023/04/30 01:23:27;;;;;;;11.13;5.85;;;;;;;;;;5049930;28;20126;-68
2023/04/30 01:26:00;;;;;;;12.35;5.88;;;;;;;;;;5043218;28;20025;-68
2023/04/30 01:28:26;;;;;;;10.02;5.22;;;;;;;;;;5048608;28;20543;-68
2023/04/30 01:30:52;;;;;;;9.63;5.70;;;;;;;;;;5045631;28;20108;-68
2023/04/30 01:33:17;;;;;;;11.23;6.50;;;;;;;;;;5051697;28;20166;-69
2023/04/30 01:35:45;;;;;;;10.68;5.80;;;;;;;;;;5055172;28;20025;-68
2023/04/30 01:38:34;;;;;;;9.30;5.63;;;;;;;;;;5054170;28;20073;-68
2023/04/30 01:41:09;;;;;;;9.13;5.65;;;;;;;;;;5049162;28;20043;-69
2023/04/30 01:43:43;;;;;;;11.90;5.95;;;;;;;;;;5053198;28;20526;-69
2023/04/30 01:46:20;;;;;;;10.88;6.22;;;;;;;;;;5044961;28;20107;-69
2023/04/30 01:48:51;;;;;;;11.52;6.65;;;;;;;;;;5053384;28;20032;-68
2023/04/30 01:51:40;;;;;;;10.07;6.25;;;;;;;;;;5053651;28;20021;-69
2023/04/30 01:54:10;;;;;;;11.88;6.90;;;;;;;;;;5040573;28;20117;-68
2023/04/30 01:56:40;;;;;;;11.60;6.78;;;;;;;;;;5049025;28;20090;-68
2023/04/30 01:59:05;;;;;;;11.52;6.50;;;;;;;;;;5048587;28;20051;-68
2023/04/30 02:01:31;;;;;;;11.15;6.43;;;;;;;;;;5047529;28;20029;-68
2023/04/30 02:03:56;;;;;;;12.07;7.28;;;;;;;;;;5045106;28;20013;-68
2023/04/30 02:06:27;;;;;;;13.65;7.10;;;;;;;;;;5053590;28;20017;-68
2023/04/30 02:08:52;;;;;;;12.68;7.00;;;;;;;;;;5057211;28;20109;-68
2023/04/30 02:11:17;;;;;;;13.63;7.03;;;;;;;;;;5053326;28;20500;-68
2023/04/30 02:13:42;;;;;;;11.45;6.93;;;;;;;;;;5052672;28;20021;-69
2023/04/30 02:16:07;;;;;;;12.23;7.05;;;;;;;;;;5052204;28;20102;-68
2023/04/30 02:18:32;;;;;;;15.52;6.97;;;;;;;;;;5053171;28;20032;-68
2023/04/30 02:20:58;;;;;;;11.32;6.63;;;;;;;;;;5053044;28;20029;-68
2023/04/30 02:23:23;;;;;;;12.00;6.13;;;;;;;;;;5048088;28;20503;-69
2023/04/30 02:25:48;;;;;;;13.00;6.80;;;;;;;;;;5046849;28;20459;-68
2023/04/30 02:28:13;;;;;;;12.23;6.88;;;;;;;;;;5055742;28;20098;-69
2023/04/30 02:30:38;;;;;;;10.68;6.10;;;;;;;;;;5054825;28;20088;-68
2023/04/30 02:33:04;;;;;;;10.27;6.07;;;;;;;;;;5054505;28;20029;-68
2023/04/30 02:35:29;;;;;;;11.65;5.95;;;;;;;;;;5053121;28;20020;-68
2023/04/30 02:37:54;;;;;;;11.00;5.67;;;;;;;;;;5050160;28;20104;-68
2023/04/30 02:40:19;;;;;;;10.13;5.60;;;;;;;;;;5050120;28;20369;-67
2023/04/30 02:42:44;;;;;;;10.40;5.23;;;;;;;;;;5053249;28;20439;-67
2023/04/30 02:45:10;;;;;;;9.43;5.20;;;;;;;;;;5052529;28;20362;-67
2023/04/30 02:47:35;;;;;;;10.02;5.38;;;;;;;;;;5052897;28;20017;-68
2023/04/30 02:50:00;;;;;;;10.67;5.53;;;;;;;;;;5049227;28;20013;-68
2023/04/30 02:52:25;;;;;;;10.32;4.88;;;;;;;;;;5051852;28;20115;-69
2023/04/30 02:54:50;;;;;;;10.43;5.10;;;;;;;;;;5050723;28;20100;-68
2023/04/30 02:57:16;;;;;;;12.07;5.72;;;;;;;;;;5045950;28;20477;-68
2023/04/30 02:59:44;;;;;;;8.98;5.00;;;;;;;;;;5055266;28;20044;-69
2023/04/30 03:02:09;;;;;;;10.07;4.50;;;;;;;;;;5052636;28;20013;-68
2023/04/30 03:04:34;;;;;;;10.13;4.45;;;;;;;;;;5045705;28;20058;-69
2023/04/30 03:07:00;;;;;;;7.97;4.30;;;;;;;;;;5052398;28;20472;-69
2023/04/30 03:09:25;;;;;;;9.87;4.17;;;;;;;;;;5052396;28;20009;-69
2023/04/30 03:11:50;;;;;;;8.40;4.63;;;;;;;;;;5052386;28;20017;-69
2023/04/30 03:14:15;;;;;;;8.45;4.38;;;;;;;;;;5046959;28;20400;-68
2023/04/30 03:16:40;;;;;;;7.57;4.28;;;;;;;;;;5051537;28;20070;-69
2023/04/30 03:19:05;;;;;;;7.43;4.03;;;;;;;;;;5056157;28;20024;-69
2023/04/30 03:21:31;;;;;;;9.43;4.38;;;;;;;;;;5053701;28;20043;-69
2023/04/30 03:23:56;;;;;;;8.27;4.03;;;;;;;;;;5050459;28;20040;-69
2023/04/30 03:26:21;;;;;;;10.73;4.20;;;;;;;;;;5049306;28;20018;-69
2023/04/30 03:28:46;;;;;;;7.30;4.00;;;;;;;;;;5044250;28;20017;-69
2023/04/30 03:31:12;;;;;;;8.20;3.90;;;;;;;;;;5038088;28;20017;-67
2023/04/30 03:33:37;;;;;;;8.03;4.10;;;;;;;;;;5052897;28;20499;-68
2023/04/30 03:36:02;;;;;;;7.87;3.93;;;;;;;;;;5052762;28;20075;-68
2023/04/30 03:38:27;;;;;;;8.27;3.90;;;;;;;;;;5051941;28;20033;-68
2023/04/30 03:40:52;;;;;;;9.45;3.60;;;;;;;;;;5051307;28;20024;-68
2023/04/30 03:43:17;;;;;;;7.47;3.73;;;;;;;;;;5049528;28;20065;-68
2023/04/30 03:45:42;;;;;;;8.60;3.70;;;;;;;;;;5051930;28;20388;-68
2023/04/30 03:48:08;;;;;;;7.88;3.92;;;;;;;;;;5050308;28;20031;-68
2023/04/30 03:50:33;;;;;;;7.53;3.80;;;;;;;;;;5053687;28;20028;-69
2023/04/30 03:52:58;;;;;;;8.00;3.70;;;;;;;;;;5051455;28;20029;-69
2023/04/30 03:55:23;;;;;;;9.23;3.73;;;;;;;;;;5051415;28;20021;-68
2023/04/30 03:57:49;;;;;;;6.90;3.47;;;;;;;;;;5049361;28;20037;-68
2023/04/30 04:00:14;;;;;;;8.30;4.00;;;;;;;;;;5052279;28;20507;-67
2023/04/30 04:02:40;;;;;;;8.10;3.40;;;;;;;;;;5048793;28;20032;-68
2023/04/30 04:05:05;;;;;;;8.27;4.17;;;;;;;;;;5044466;28;20017;-68
2023/04/30 04:07:30;;;;;;;8.50;3.67;;;;;;;;;;5053325;28;20034;-68
2023/04/30 04:09:55;;;;;;;7.73;3.30;;;;;;;;;;5052785;28;20025;-69
2023/04/30 04:12:21;;;;;;;7.43;3.55;;;;;;;;;;5048674;28;20028;-71
2023/04/30 04:14:46;;;;;;;7.15;3.50;;;;;;;;;;5050963;28;20052;-67
2023/04/30 04:17:11;;;;;;;6.37;3.40;;;;;;;;;;5051288;28;20043;-68
2023/04/30 04:19:36;;;;;;;8.07;3.70;;;;;;;;;;5051347;28;20025;-69
2023/04/30 04:22:01;;;;;;;8.45;3.55;;;;;;;;;;5051483;28;20033;-68
2023/04/30 04:24:27;;;;;;;8.77;3.58;;;;;;;;;;5051588;28;20071;-70
2023/04/30 04:26:52;;;;;;;9.23;3.93;;;;;;;;;;5052030;28;20017;-69
2023/04/30 04:29:17;;;;;;;8.00;3.38;;;;;;;;;;5051061;28;20048;-67
2023/04/30 04:31:43;;;;;;;7.97;3.50;;;;;;;;;;5050849;28;20021;-68
2023/04/30 04:34:08;;;;;;;7.43;3.50;;;;;;;;;;5050353;28;20028;-68
2023/04/30 04:36:33;;;;;;;10.50;3.40;;;;;;;;;;5047410;28;21003;-69
2023/04/30 04:39:02;;;;;;;6.28;3.05;;;;;;;;;;5040153;28;20503;-68
2023/04/30 04:41:28;;;;;;;7.47;3.50;;;;;;;;;;5049994;28;20044;-68
2023/04/30 04:43:53;;;;;;;7.60;2.92;;;;;;;;;;5050192;28;20032;-68
2023/04/30 04:46:19;;;;;;;8.68;3.53;;;;;;;;;;5051293;28;20024;-69
2023/04/30 04:48:45;;;;;;;8.27;3.70;;;;;;;;;;5050593;28;20429;-67
2023/04/30 04:51:10;;;;;;;7.07;3.25;;;;;;;;;;5050667;28;20049;-66
2023/04/30 04:53:36;;;;;;;8.17;3.23;;;;;;;;;;5043536;28;20103;-67
2023/04/30 04:56:01;;;;;;;7.70;2.92;;;;;;;;;;5046457;28;20105;-68
2023/04/30 04:58:27;;;;;;;6.40;3.40;;;;;;;;;;5048676;28;20400;-66
2023/04/30 05:00:52;;;;;;;7.95;3.42;;;;;;;;;;5050176;28;20087;-66
2023/04/30 05:03:19;;;;;;;7.15;3.45;;;;;;;;;;5047477;28;20166;-68
2023/04/30 05:05:44;;;;;;;8.10;3.40;;;;;;;;;;5050574;28;20020;-67
2023/04/30 05:08:09;;;;;;;6.75;3.15;;;;;;;;;;5046554;28;20021;-67
2023/04/30 05:10:35;;;;;;;8.10;3.10;;;;;;;;;;5045595;28;20025;-67
2023/04/30 05:13:00;;;;;;;7.50;3.40;;;;;;;;;;5062178;28;20098;-66
2023/04/30 05:15:25;;;;;;;7.82;2.75;;;;;;;;;;5053225;28;20036;-66
2023/04/30 05:17:50;;;;;;;7.63;2.70;;;;;;;;;;5048205;28;20032;-64
2023/04/30 05:20:15;;;;;;;8.23;2.90;;;;;;;;;;5052773;28;20021;-64
2023/04/30 05:22:40;;;;;;;6.90;3.03;;;;;;;;;;5046678;28;20445;-63
2023/04/30 05:25:06;;;;;;;7.10;3.37;;;;;;;;;;5053282;28;20630;-64
2023/04/30 05:27:31;;;;;;;8.60;3.30;;;;;;;;;;5052014;28;20017;-66
2023/04/30 05:29:58;;;;;;;6.93;3.08;;;;;;;;;;5050222;28;20108;-65
2023/04/30 05:32:23;;;;;;;7.00;2.80;;;;;;;;;;5049463;28;20017;-65
2023/04/30 05:34:48;;;;;;;7.20;3.00;;;;;;;;;;5051633;28;20020;-65
2023/04/30 05:37:16;;;;;;;7.15;3.10;;;;;;;;;;5042521;28;20021;-65
2023/04/30 05:39:41;;;;;;;6.68;2.88;;;;;;;;;;5050063;28;20088;-64
2023/04/30 05:42:06;;;;;;;8.80;3.10;;;;;;;;;;5049692;28;20096;-64
2023/04/30 05:44:31;;;;;;;7.30;2.75;;;;;;;;;;5049558;28;20036;-65
2023/04/30 05:46:56;;;;;;;6.20;2.90;;;;;;;;;;5046655;28;20024;-64
2023/04/30 05:49:22;;;;;;;9.57;2.67;;;;;;;;;;5050621;28;20029;-64
2023/04/30 05:51:47;;;;;;;8.68;3.03;;;;;;;;;;5040041;28;20043;-64
2023/04/30 05:54:12;;;;;;;7.13;2.55;;;;;;;;;;5058671;28;20120;-64
2023/04/30 05:56:37;;;;;;;9.25;3.30;;;;;;;;;;5042520;28;20063;-63
2023/04/30 05:59:02;;;;;;;7.72;2.95;;;;;;;;;;5044200;28;20029;-65
2023/04/30 06:01:28;;;;;;;8.88;3.03;;;;;;;;;;5055863;28;20115;-65
2023/04/30 06:03:53;;;;;;;5.50;2.45;;;;;;;;;;5053453;28;20032;-63
2023/04/30 06:06:18;;;;;;;9.27;2.67;;;;;;;;;;5048285;28;20021;-65
2023/04/30 06:08:44;;;;;;;6.60;2.70;;;;;;;;;;5039432;28;20078;-66
2023/04/30 06:11:10;;;;;;;7.15;2.65;;;;;;;;;;5050913;28;20025;-65
2023/04/30 06:13:35;;;;;;;9.65;3.13;;;;;;;;;;5052590;28;20065;-65
2023/04/30 06:16:00;;;;;;;8.23;3.00;;;;;;;;;;5057449;28;20107;-65
2023/04/30 06:18:25;;;;;;;7.18;3.30;;;;;;;;;;5053460;28;21031;-64
2023/04/30 06:20:50;;;;;;;9.13;3.38;;;;;;;;;;5041968;28;20025;-64
2023/04/30 06:23:16;;;;;;;6.50;2.83;;;;;;;;;;5046537;28;20055;-63
2023/04/30 06:25:41;;;;;;;6.17;3.00;;;;;;;;;;5056892;28;20017;-64
2023/04/30 06:28:08;;;;;;;10.43;3.53;;;;;;;;;;5055957;28;20096;-64
2023/04/30 06:30:33;;;;;;;8.45;3.10;;;;;;;;;;5053711;28;20397;-64
2023/04/30 06:32:58;;;;;;;7.10;3.00;;;;;;;;;;5055359;28;20035;-64
2023/04/30 06:35:23;;;;;;;7.13;3.08;;;;;;;;;;5055284;28;21020;-65
2023/04/30 06:37:48;;;;;;;7.05;2.85;;;;;;;;;;5055793;28;20021;-64
2023/04/30 06:40:14;;;;;;;8.57;2.83;;;;;;;;;;5055997;28;20029;-64
2023/04/30 06:42:39;;;;;;;7.83;3.10;;;;;;;;;;5055034;28;20501;-64
2023/04/30 06:45:05;;;;;;;8.35;3.10;;;;;;;;;;5053364;28;20062;-64
2023/04/30 06:47:35;;;;;;;7.35;2.80;;;;;;;;;;5055849;28;20028;-64
2023/04/30 06:50:00;;;;;;;6.60;2.70;;;;;;;;;;5054108;28;20025;-64
2023/04/30 06:52:25;;;;;;;6.33;2.63;;;;;;;;;;5053801;28;20066;-64
2023/04/30 06:54:50;;;;;;;10.10;3.50;;;;;;;;;;5055417;28;20470;-64
2023/04/30 06:57:16;;;;;;;6.70;2.90;;;;;;;;;;5052837;28;20435;-64
2023/04/30 06:59:41;;;;;;;8.55;3.47;;;;;;;;;;5052027;28;20436;-64
2023/04/30 07:02:06;;;;;;;8.55;3.03;;;;;;;;;;5053982;28;20567;-65
2023/04/30 07:04:31;;;;;;;8.80;3.53;;;;;;;;;;5061871;28;20036;-65
2023/04/30 07:06:56;;;;;;;6.90;2.90;;;;;;;;;;5050865;28;20507;-66
2023/04/30 07:09:22;;;;;;;7.60;3.03;;;;;;;;;;5051174;28;20097;-65
2023/04/30 07:11:47;;;;;;;8.50;3.10;;;;;;;;;;5054250;28;20369;-64
2023/04/30 07:14:12;;;;;;;7.50;2.90;;;;;;;;;;5042387;28;20535;-66
2023/04/30 07:16:37;;;;;;;7.43;3.22;;;;;;;;;;5046283;28;20025;-64
2023/04/30 07:19:02;;;;;;;8.18;3.05;;;;;;;;;;5048084;28;20025;-66
2023/04/30 07:21:27;;;;;;;7.57;2.90;;;;;;;;;;5049770;28;20094;-64
2023/04/30 07:23:52;;;;;;;8.90;3.20;;;;;;;;;;5051190;28;20028;-64
2023/04/30 07:26:18;;;;;;;9.65;3.40;;;;;;;;;;5052328;28;20021;-63
2023/04/30 07:28:45;;;;;;;9.33;3.10;;;;;;;;;;5049383;28;20017;-64
2023/04/30 07:31:10;;;;;;;7.65;2.80;;;;;;;;;;5043720;28;20995;-65
2023/04/30 07:33:35;;;;;;;8.68;3.05;;;;;;;;;;5051380;28;20035;-64
2023/04/30 07:36:00;;;;;;;8.68;3.30;;;;;;;;;;5052396;28;20384;-63
2023/04/30 07:38:25;;;;;;;9.03;2.63;;;;;;;;;;5052613;28;20021;-63
2023/04/30 07:40:51;;;;;;;7.43;2.85;;;;;;;;;;5051158;28;20031;-66
2023/04/30 07:43:16;;;;;;;6.17;2.60;;;;;;;;;;5052343;28;20029;-66
2023/04/30 07:45:41;;;;;;;10.40;3.00;;;;;;;;;;5053017;28;20037;-66
2023/04/30 07:48:06;;;;;;;8.60;3.00;;;;;;;;;;5052677;28;20389;-65
2023/04/30 07:50:36;;;;;;;7.93;2.88;;;;;;;;;;5050073;28;20124;-65
2023/04/30 07:53:01;;;;;;;9.13;3.42;;;;;;;;;;5049263;28;20044;-65
2023/04/30 07:55:26;;;;;;;10.73;3.20;;;;;;;;;;5049952;28;20013;-65
2023/04/30 07:57:52;;;;;;;8.77;2.90;;;;;;;;;;5049975;28;20814;-65
2023/04/30 08:00:17;;;;;;;9.45;3.33;;;;;;;;;;5051698;28;20048;-65
2023/04/30 08:02:47;;;;;;;9.30;3.03;;;;;;;;;;5046686;28;20087;-66
2023/04/30 08:05:12;;;;;;;8.68;3.00;;;;;;;;;;5051299;28;20493;-66
2023/04/30 08:07:38;;;;;;;7.33;2.80;;;;;;;;;;5047785;28;20029;-66
2023/04/30 08:10:03;;;;;;;10.50;3.17;;;;;;;;;;5051211;28;20094;-66
2023/04/30 08:12:29;;;;;;;7.10;2.75;;;;;;;;;;5050739;28;20021;-66
2023/04/30 08:15:03;;;;;;;9.05;2.83;;;;;;;;;;5051485;28;20017;-66
2023/04/30 08:17:28;;;;;;;5.95;2.50;;;;;;;;;;5047787;28;20036;-66
2023/04/30 08:19:54;;;;;;;10.35;2.75;;;;;;;;;;5052767;28;20495;-65
2023/04/30 08:22:19;;;;;;;5.78;2.38;;;;;;;;;;5055142;28;20060;-65
2023/04/30 08:24:44;;;;;;;9.73;2.93;;;;;;;;;;5052305;28;20024;-65
2023/04/30 08:27:09;;;;;;;9.00;2.70;;;;;;;;;;5048875;28;20524;-64
2023/04/30 08:29:34;;;;;;;8.77;2.95;;;;;;;;;;5051061;28;20059;-65
2023/04/30 08:32:01;;;;;;;9.75;2.75;;;;;;;;;;5051024;28;20013;-65
2023/04/30 08:34:26;;;;;;;8.07;2.65;;;;;;;;;;5050323;28;20029;-65
2023/04/30 08:36:52;;;;;;;8.20;2.88;;;;;;;;;;5045076;28;20081;-65
2023/04/30 08:39:17;;;;;;;8.07;2.97;;;;;;;;;;5050249;28;20021;-66
2023/04/30 08:41:45;;;;;;;7.33;2.93;;;;;;;;;;5051016;28;20028;-64
2023/04/30 08:44:10;;;;;;;8.60;2.90;;;;;;;;;;5048517;28;20543;-64
2023/04/30 08:46:37;;;;;;;7.35;2.67;;;;;;;;;;5050800;28;20016;-64
2023/04/30 08:49:03;;;;;;;8.30;2.75;;;;;;;;;;5050862;28;20032;-65
2023/04/30 08:51:30;;;;;;;6.37;2.60;;;;;;;;;;5050592;28;20017;-65
2023/04/30 08:53:56;;;;;;;6.20;2.40;;;;;;;;;;5045400;28;20040;-65
2023/04/30 08:56:21;;;;;;;11.43;2.92;;;;;;;;;;5050623;28;20017;-65
2023/04/30 08:58:46;;;;;;;8.88;2.92;;;;;;;;;;5049165;28;20036;-64
2023/04/30 09:01:12;;;;;;;8.45;3.03;;;;;;;;;;5049648;28;20435;-65
2023/04/30 09:03:37;;;;;;;7.22;2.85;;;;;;;;;;5049671;28;20020;-65
2023/04/30 09:06:02;;;;;;;7.73;2.70;;;;;;;;;;5050637;28;20043;-65
2023/04/30 09:08:49;;;;;;;8.80;2.90;;;;;;;;;;5044968;28;20482;-65
2023/04/30 09:11:32;;;;;;;7.13;2.63;;;;;;;;;;5044798;28;20029;-65
2023/04/30 09:13:58;;;;;;;10.27;3.10;;;;;;;;;;5049923;28;20033;-65
2023/04/30 09:16:24;;;;;;;7.70;2.63;;;;;;;;;;5050223;28;20071;-65
2023/04/30 09:18:50;;;;;;;7.40;2.40;;;;;;;;;;5050759;28;20027;-64
2023/04/30 09:21:15;;;;;;;6.50;2.70;;;;;;;;;;5049322;28;20102;-65
2023/04/30 09:23:53;;;;;;;6.20;2.67;;;;;;;;;;5050006;28;20437;-65
2023/04/30 09:26:25;;;;;;;10.18;2.67;;;;;;;;;;5050827;28;20029;-65
2023/04/30 09:28:53;;;;;;;11.00;2.67;;;;;;;;;;5050445;28;20031;-65
2023/04/30 09:31:20;;;;;;;8.10;2.50;;;;;;;;;;5042959;28;20031;-65
2023/04/30 09:33:46;;;;;;;7.72;2.80;;;;;;;;;;5049948;28;20047;-65
2023/04/30 09:36:11;;;;;;;7.78;2.80;;;;;;;;;;5049105;28;20033;-65
2023/04/30 09:38:36;;;;;;;5.38;2.42;;;;;;;;;;5050489;28;20532;-66
2023/04/30 09:41:02;;;;;;;7.73;2.50;;;;;;;;;;5048930;28;20027;-65
2023/04/30 09:43:27;;;;;;;5.70;2.30;;;;;;;;;;5048069;28;20538;-65
2023/04/30 09:45:53;;;;;;;9.45;2.58;;;;;;;;;;5049689;28;20053;-65
2023/04/30 09:48:21;;;;;;;7.47;2.70;;;;;;;;;;5054442;28;20078;-65
2023/04/30 09:50:47;;;;;;;8.48;2.30;;;;;;;;;;5049070;28;20035;-65
2023/04/30 09:53:13;;;;;;;6.32;2.33;;;;;;;;;;5061325;28;20025;-65
2023/04/30 09:55:41;;;;;;;6.90;2.50;;;;;;;;;;5055889;28;20074;-64
2023/04/30 09:58:06;;;;;;;6.38;2.30;;;;;;;;;;5054162;28;20455;-64
2023/04/30 10:00:33;;;;;;;8.75;2.70;;;;;;;;;;5048536;28;20048;-64
2023/04/30 10:02:58;;;;;;;;;;;;;;;;;;5051356;28;20465;-65
2023/04/30 10:05:23;;;;;;;6.43;2.15;;;;;;;;;;5060411;28;19964;-64
2023/04/30 10:07:48;;;;;;;8.37;2.40;;;;;;;;;;5051339;28;20025;-65
2023/04/30 10:10:13;;;;;;;6.67;2.80;;;;;;;;;;5052705;28;20077;-64
2023/04/30 10:12:39;;;;;;;6.95;2.35;;;;;;;;;;5061909;28;20087;-64
2023/04/30 10:15:16;;;;;;;6.80;2.47;;;;;;;;;;5056782;28;20158;-64
2023/04/30 10:17:45;;;;;;;7.70;2.60;;;;;;;;;;5047924;28;20037;-64
2023/04/30 10:20:11;;;;;;;6.88;2.40;;;;;;;;;;5050950;28;20028;-65
2023/04/30 10:22:36;;;;;;;6.10;2.63;;;;;;;;;;5053341;28;20095;-65
2023/04/30 10:25:02;;;;;;;6.82;2.47;;;;;;;;;;5053332;28;20104;-64
2023/04/30 10:27:28;;;;;;;7.65;2.33;;;;;;;;;;5053625;28;20033;-65
2023/04/30 10:29:53;;;;;;;7.60;2.15;;;;;;;;;;5054038;28;20024;-65
2023/04/30 10:32:19;;;;;;;7.90;2.42;;;;;;;;;;5052819;28;20063;-65
2023/04/30 10:34:49;;;;;;;7.60;2.40;;;;;;;;;;5053288;28;20025;-66
2023/04/30 10:37:30;;;;;;;7.50;2.30;;;;;;;;;;5055379;28;20052;-65
2023/04/30 10:39:55;;;;;;;6.65;2.33;;;;;;;;;;5045281;28;20018;-65
2023/04/30 10:42:20;;;;;;;7.07;2.38;;;;;;;;;;5043478;28;20019;-64
2023/04/30 10:44:47;;;;;;;6.87;2.50;;;;;;;;;;5046194;28;20021;-65
2023/04/30 10:47:12;;;;;;;9.07;2.35;;;;;;;;;;5044225;28;20380;-64
2023/04/30 10:49:37;;;;;;;7.00;2.37;;;;;;;;;;5054702;28;20035;-65
2023/04/30 10:52:03;;;;;;;6.83;2.20;;;;;;;;;;5056883;28;20529;-65
2023/04/30 10:54:33;;;;;;;9.32;2.28;;;;;;;;;;5051813;28;20029;-64
2023/04/30 10:57:10;;;;;;;9.05;2.40;;;;;;;;;;5053274;28;20036;-65
2023/04/30 10:59:37;;;;;;;7.13;2.25;;;;;;;;;;5051614;28;20485;-65
2023/04/30 11:02:02;;;;;;;6.43;2.00;;;;;;;;;;5052043;28;20508;-65
2023/04/30 11:04:27;;;;;;;5.77;2.27;;;;;;;;;;5051902;28;20098;-65
2023/04/30 11:06:52;;;;;;;4.63;1.80;;;;;;;;;;5052736;28;20419;-65
2023/04/30 11:09:18;;;;;;;6.75;2.03;;;;;;;;;;5052557;28;20427;-65
2023/04/30 11:11:44;;;;;;;7.07;2.00;;;;;;;;;;5048554;28;20056;-65
2023/04/30 11:14:10;;;;;;;6.82;1.90;;;;;;;;;;5054782;28;20543;-65
2023/04/30 11:16:35;;;;;;;3.90;1.75;;;;;;;;;;5072554;28;20043;-65
2023/04/30 11:19:10;;;;;;;8.23;2.17;;;;;;;;;;5075606;28;20471;-65
2023/04/30 11:21:39;;;;;;;8.55;2.00;;;;;;;;;;5051919;28;20036;-64
2023/04/30 11:24:06;;;;;;;6.35;1.92;;;;;;;;;;5045766;28;20032;-65
2023/04/30 11:27:02;;;;;;;7.53;2.05;;;;;;;;;;5051041;28;20029;-65
2023/04/30 11:29:27;;;;;;;6.07;2.05;;;;;;;;;;5051215;28;20072;-65
2023/04/30 11:31:53;;;;;;;7.28;2.28;;;;;;;;;;5051873;28;20013;-65
2023/04/30 11:34:18;;;;;;;6.13;1.85;;;;;;;;;;5045197;28;20111;-65
2023/04/30 11:36:43;;;;;;;7.57;2.10;;;;;;;;;;5052777;28;20036;-65
2023/04/30 11:39:09;;;;;;;7.47;1.97;;;;;;;;;;5050596;28;20021;-66
2023/04/30 11:41:39;;;;;;;8.10;2.38;;;;;;;;;;5051684;28;20017;-65
2023/04/30 11:44:20;;;;;;;6.70;2.00;;;;;;;;;;5051336;28;20031;-65
2023/04/30 11:46:46;;;;;;;6.70;1.90;;;;;;;;;;5052123;28;20017;-65
2023/04/30 11:49:11;;;;;;;8.38;1.90;;;;;;;;;;5049048;28;20025;-65
2023/04/30 11:51:36;;;;;;;5.57;2.00;;;;;;;;;;5051823;28;20314;-65
2023/04/30 11:54:01;;;;;;;7.72;2.13;;;;;;;;;;5050882;28;20035;-65
2023/04/30 11:56:26;;;;;;;6.43;2.20;;;;;;;;;;5050123;28;20029;-65
2023/04/30 11:58:52;;;;;;;5.45;2.10;;;;;;;;;;5054951;28;20034;-65
2023/04/30 12:01:18;;;;;;;5.78;1.70;;;;;;;;;;5051851;28;20017;-66
2023/04/30 12:03:43;;;;;;;;;;;;;;;;;;5055364;28;20107;-65
2023/04/30 12:06:10;;;;;;;4.22;1.52;;;;;;;;;;5049222;28;19999;-65
2023/04/30 12:08:35;;;;;;;6.53;2.05;;;;;;;;;;5054370;28;20070;-66
2023/04/30 12:11:00;;;;;;;5.57;1.92;;;;;;;;;;5052816;28;20424;-65
2023/04/30 12:13:26;;;;;;;7.33;2.47;;;;;;;;;;5050877;28;20029;-64
2023/04/30 12:15:58;;;;;;;5.80;2.00;;;;;;;;;;5050030;28;20028;-65
2023/04/30 12:18:23;;;;;;;;;;;;;;;;;;5048337;28;20022;-65
2023/04/30 12:20:48;;;;;;;5.85;1.85;;;;;;;;;;5049378;28;19905;-65
2023/04/30 12:23:14;;;;;;;4.97;1.60;;;;;;;;;;5050705;28;20025;-64
2023/04/30 12:25:40;;;;;;;6.63;1.80;;;;;;;;;;5050214;28;20024;-65
2023/04/30 12:28:05;;;;;;;6.15;1.77;;;;;;;;;;5050765;28;20025;-65
2023/04/30 12:30:30;;;;;;;4.78;1.80;;;;;;;;;;5052918;28;20028;-64
2023/04/30 12:32:56;;;;;;;5.57;1.83;;;;;;;;;;5045062;28;20037;-64
2023/04/30 12:35:22;;;;;;;8.65;2.13;;;;;;;;;;5050408;28;20036;-65
2023/04/30 12:37:51;;;;;;;4.70;1.77;;;;;;;;;;5051969;28;20020;-64
2023/04/30 12:40:20;;;;;;;5.82;1.88;;;;;;;;;;5044604;28;20032;-65
2023/04/30 12:42:48;;;;;;;4.47;1.60;;;;;;;;;;5047549;28;20053;-65
2023/04/30 12:45:33;;;;;;;6.50;1.63;;;;;;;;;;5050231;28;20036;-65
2023/04/30 12:47:58;;;;;;;6.13;1.80;;;;;;;;;;5048499;28;20021;-64
2023/04/30 12:50:23;;;;;;;5.70;1.60;;;;;;;;;;5050784;28;20021;-65
2023/04/30 12:52:48;;;;;;;6.70;1.77;;;;;;;;;;5051323;28;20082;-65
2023/04/30 12:55:20;;;;;;;6.32;1.92;;;;;;;;;;5050297;28;20040;-65
2023/04/30 12:58:01;;;;;;;4.60;1.55;;;;;;;;;;5051205;28;20530;-65
2023/04/30 13:00:26;;;;;;;6.15;1.70;;;;;;;;;;5044470;28;20540;-64
2023/04/30 13:02:51;;;;;;;5.80;1.88;;;;;;;;;;5049963;28;20112;-64
2023/04/30 13:05:17;;;;;;;6.63;1.63;;;;;;;;;;5050664;28;20021;-64
2023/04/30 13:07:42;;;;;;;5.33;1.67;;;;;;;;;;5050563;28;20104;-64
2023/04/30 13:10:07;;;;;;;7.80;2.00;;;;;;;;;;5049651;28;20132;-63
2023/04/30 13:12:32;;;;;;;6.55;1.83;;;;;;;;;;5050161;28;20086;-64
2023/04/30 13:14:57;;;;;;;6.55;1.50;;;;;;;;;;5050669;28;20021;-66
2023/04/30 13:17:23;;;;;;;7.13;1.80;;;;;;;;;;5050620;28;20075;-65
2023/04/30 13:19:48;;;;;;;7.72;1.55;;;;;;;;;;5049152;28;20500;-65
2023/04/30 13:22:14;;;;;;;5.88;1.55;;;;;;;;;;5049747;28;20025;-65
2023/04/30 13:24:39;;;;;;;5.57;1.52;;;;;;;;;;5050170;28;20495;-65
2023/04/30 13:27:04;;;;;;;5.30;1.52;;;;;;;;;;5054498;28;20033;-65
2023/04/30 13:29:30;;;;;;;5.40;1.60;;;;;;;;;;5047621;28;20017;-65
2023/04/30 13:31:55;;;;;;;4.93;1.40;;;;;;;;;;5054442;28;20444;-65
2023/04/30 13:34:21;;;;;;;5.70;1.67;;;;;;;;;;5054076;28;20400;-65
2023/04/30 13:36:46;;;;;;;5.63;1.60;;;;;;;;;;5054398;28;20048;-65
2023/04/30 13:39:11;;;;;;;6.30;1.48;;;;;;;;;;5045669;28;20024;-65
2023/04/30 13:41:36;;;;;;;5.20;1.60;;;;;;;;;;5048439;28;20390;-65
2023/04/30 13:44:01;;;;;;;4.53;1.65;;;;;;;;;;5053995;28;20049;-65
2023/04/30 13:46:26;;;;;;;4.33;1.40;;;;;;;;;;5054551;28;20025;-65
2023/04/30 13:48:52;;;;;;;5.22;1.60;;;;;;;;;;5052803;28;20100;-65
2023/04/30 13:51:17;;;;;;;5.43;1.40;;;;;;;;;;5054374;28;20434;-65
2023/04/30 13:53:43;;;;;;;5.33;1.20;;;;;;;;;;5053716;28;20021;-65
2023/04/30 13:56:09;;;;;;;4.35;1.52;;;;;;;;;;5054252;28;20427;-64
2023/04/30 13:58:34;;;;;;;5.72;1.70;;;;;;;;;;5049378;28;20037;-65
2023/04/30 14:00:59;;;;;;;5.25;1.40;;;;;;;;;;5045078;28;20105;-65
2023/04/30 14:03:24;;;;;;;4.80;1.50;;;;;;;;;;5046160;28;20064;-65
2023/04/30 14:05:50;;;;;;;5.20;1.50;;;;;;;;;;5053993;28;20388;-64
2023/04/30 14:08:15;;;;;;;6.87;1.80;;;;;;;;;;5054091;28;20384;-65
2023/04/30 14:10:40;;;;;;;6.80;1.63;;;;;;;;;;5047695;28;20045;-65
2023/04/30 14:13:05;;;;;;;7.00;1.40;;;;;;;;;;5047854;28;20029;-65
2023/04/30 14:15:31;;;;;;;6.03;1.40;;;;;;;;;;5051565;28;20099;-65
2023/04/30 14:17:56;;;;;;;3.90;1.25;;;;;;;;;;5052742;28;20384;-65
2023/04/30 14:20:22;;;;;;;5.57;1.52;;;;;;;;;;5053705;28;20072;-65
2023/04/30 14:22:47;;;;;;;5.97;1.43;;;;;;;;;;5052828;28;20538;-66
2023/04/30 14:25:12;;;;;;;5.18;1.40;;;;;;;;;;5046452;28;20994;-65
2023/04/30 14:27:38;;;;;;;4.65;1.23;;;;;;;;;;5048784;28;20032;-65
2023/04/30 14:30:04;;;;;;;5.13;1.13;;;;;;;;;;5053271;28;20052;-65
2023/04/30 14:32:29;;;;;;;3.38;1.20;;;;;;;;;;5052943;28;20041;-65
2023/04/30 14:34:54;;;;;;;5.60;1.30;;;;;;;;;;5053092;28;20068;-65